Time;durP1;ratioP1;P1;durP2;ratioP2;P2;SDS_P1;SDS_P2;PMS_P1;PMS_P2;Temp;Humidity;BMP_temperature;BMP_pressure;BME280_temperature;BME280_humidity;BME280_pressure;Samples;Min_cycle;Max_cycle;Signal;HPM_P1;HPM_P2
2021/12/09 00:00:37;;;;;;;;;;;7.20;79.60;;;;;;6183667;23;20032;-92
2021/12/09 00:03:06;;;;;;;3.95;1.50;;;;;;;;;;6184324;23;19904;-92
2021/12/09 00:05:33;;;;;;;4.45;1.35;;;;;;;;;;6182351;23;20515;-92
2021/12/09 00:08:00;;;;;;;1.75;1.30;;;;;;;;;;6180455;23;20064;-92
2021/12/09 00:10:26;;;;;;;2.30;1.40;;;;;;;;;;6183215;23;20009;-92
2021/12/09 00:12:52;;;;;;;2.55;2.00;;;;;;;;;;6182513;23;20028;-92
2021/12/09 00:15:18;;;;;;;1.90;1.30;;;;;;;;;;6184508;23;20005;-92
2021/12/09 00:17:44;;;;;;;3.38;1.77;;;;;;;;;;6181415;23;20001;-91
2021/12/09 00:20:12;;;;;;;2.40;1.67;;;;;;;;;;6184390;23;20009;-92
2021/12/09 00:22:38;;;;;;;1.83;1.65;;;;;;;;;;6183346;23;20079;-92
2021/12/09 00:25:04;;;;;;;4.38;2.08;;;;;;;;;;6183204;23;20043;-93
2021/12/09 00:27:30;;;;;;;9.30;2.10;;;;;;;;;;6179483;23;20016;-91
2021/12/09 00:29:56;;;;;;;1.48;1.38;;;;;;;;;;6183386;23;20211;-92
2021/12/09 00:32:22;;;;;;;2.42;1.67;;;;;;;;;;6183908;23;19998;-93
2021/12/09 00:34:50;;;;;;;1.92;1.30;;;;;;;;;;6183576;23;20008;-92
2021/12/09 00:37:33;;;;;;;1.27;1.13;;;;;;;;;;6180839;23;20001;-92
2021/12/09 00:39:59;;;;;;;2.90;1.38;;;;;;;;;;6184355;23;20435;-91
2021/12/09 00:42:26;;;;;;;1.38;1.10;;;;;;;;;;6182206;23;20020;-91
2021/12/09 00:44:55;;;;;;;1.73;1.30;;;;;;;;;;6184430;23;20009;-93
2021/12/09 00:47:22;;;;;;;1.42;1.08;;;;;;;;;;6180949;23;20059;-91
2021/12/09 00:49:49;;;;;;;2.15;1.73;;;;;;;;;;6183657;23;20005;-93
2021/12/09 00:52:15;;;;;;;4.90;1.40;;;;;;;;;;6184246;23;20091;-92
2021/12/09 00:54:42;;;;;;;1.42;1.00;;;;;;;;;;6183587;23;20751;-91
2021/12/09 00:57:09;;;;;;;2.92;1.85;;;;;;;;;;6181217;23;20008;-91
2021/12/09 00:59:35;;;;;;;1.70;1.40;;;;;;;;;;6182608;23;20059;-91
2021/12/09 01:02:01;;;;;;;5.43;2.03;;;;;;;;;;6184050;23;20001;-92
2021/12/09 01:04:28;;;;;;;4.20;1.73;;;;;;;;;;6182250;23;20067;-91
2021/12/09 01:06:57;;;;;;;1.20;1.10;;;;;;;;;;6181859;23;20011;-93
2021/12/09 01:09:23;;;;;;;1.83;1.08;;;;;;;;;;6183301;23;20084;-91
2021/12/09 01:11:49;;;;;;;6.90;1.17;;;;;;;;;;6181686;23;20102;-91
2021/12/09 01:14:18;;;;;;;3.97;1.63;;;;;;;;;;6183588;23;20096;-92
2021/12/09 01:16:44;;;;;;;2.05;1.27;;;;;;;;;;6181917;23;20336;-93
2021/12/09 01:19:10;;;;;;;2.03;1.83;;;;;;;;;;6182831;23;20035;-91
2021/12/09 01:21:36;;;;;;;3.20;1.77;;;;;;;;;;6183996;23;19997;-92
2021/12/09 01:24:02;;;;;;;4.15;1.95;;;;;;;;;;6180540;23;20012;-92
2021/12/09 01:26:29;;;;;;;1.10;1.00;;;;;;;;;;6182027;23;20075;-92
2021/12/09 01:29:03;;;;;;;1.55;1.15;;;;;;;;;;6180901;23;20009;-93
2021/12/09 01:31:34;;;;;;;1.67;1.10;;;;;;;;;;6183779;23;20455;-94
2021/12/09 01:34:02;;;;;;;1.67;1.42;;;;;;;;;;6182952;23;20039;-91
2021/12/09 01:36:29;;;;;;;1.40;1.08;;;;;;;;;;6180039;23;20008;-91
2021/12/09 01:38:55;;;;;;;1.83;1.10;;;;;;;;;;6181335;23;20092;-93
2021/12/09 01:41:21;;;;;;;2.40;1.67;;;;;;;;;;6183996;23;20379;-94
2021/12/09 01:43:47;;;;;;;1.67;1.55;;;;;;;;;;6183836;23;20009;-92
2021/12/09 01:46:14;;;;;;;1.67;1.33;;;;;;;;;;6180115;23;20005;-93
2021/12/09 01:48:42;;;;;;;2.03;1.20;;;;;;;;;;6179837;23;20013;-91
2021/12/09 01:51:08;;;;;;;2.28;1.10;;;;;;;;;;6182058;23;20001;-91
2021/12/09 01:53:34;;;;;;;5.13;0.98;;;;;;;;;;6182212;23;20017;-93
2021/12/09 01:56:01;;;;;;;2.38;1.48;;;;;;;;;;6182019;23;20020;-91
2021/12/09 01:58:27;;;;;;;6.70;1.10;;;;;;;;;;6181596;23;20008;-90
2021/12/09 02:00:54;;;;;;;1.33;1.23;;;;;;;;;;6184123;23;20005;-92
2021/12/09 02:03:20;;;;;;;10.05;1.20;;;;;;;;;;6183425;23;20009;-92
2021/12/09 02:05:46;;;;;;;2.67;1.42;;;;;;;;;;6181831;23;20024;-92
2021/12/09 02:08:13;;;;;;;0.70;0.70;;;;;;;;;;6182696;23;20004;-91
2021/12/09 02:10:40;;;;;;;8.20;1.15;;;;;;;;;;6182699;23;20339;-92
2021/12/09 02:13:06;;;;;;;1.77;1.35;;;;;;;;;;6183389;23;20436;-92
2021/12/09 02:15:33;;;;;;;1.45;0.93;;;;;;;;;;6181985;23;20009;-91
2021/12/09 02:18:00;;;;;;;0.90;0.90;;;;;;;;;;6180856;23;20080;-92
2021/12/09 02:20:27;;;;;;;6.47;1.95;;;;;;;;;;6183894;23;20008;-91
2021/12/09 02:22:56;;;;;;;1.38;1.20;;;;;;;;;;6182149;23;20016;-92
2021/12/09 02:25:22;;;;;;;2.28;1.30;;;;;;;;;;6181459;23;20029;-92
2021/12/09 02:27:49;;;;;;;4.03;1.00;;;;;;;;;;6180733;23;20009;-93
2021/12/09 02:30:15;;;;;;;0.98;0.80;;;;;;;;;;6182087;23;20016;-93
2021/12/09 02:32:41;;;;;;;3.80;1.40;;;;;;;;;;6181761;23;20001;-93
2021/12/09 02:35:07;;;;;;;5.00;1.00;;;;;;;;;;6181064;23;20009;-94
2021/12/09 02:37:33;;;;;;;0.90;0.82;;;;;;;;;;6179579;23;20012;-91
2021/12/09 02:40:00;;;;;;;2.85;1.55;;;;;;;;;;6183530;23;20432;-94
2021/12/09 02:42:26;;;;;;;4.90;1.52;;;;;;;;;;6183014;23;20005;-93
2021/12/09 02:44:55;;;;;;;1.23;1.13;;;;;;;;;;6183814;23;20340;-92
2021/12/09 02:47:21;;;;;;;3.78;1.42;;;;;;;;;;6180259;23;20008;-92
2021/12/09 02:49:47;;;;;;;1.20;1.02;;;;;;;;;;6183420;23;20013;-92
2021/12/09 02:52:13;;;;;;;1.63;1.25;;;;;;;;;;6183230;23;20001;-91
2021/12/09 02:54:39;;;;;;;3.15;1.05;;;;;;;;;;6183469;23;20049;-92
2021/12/09 02:57:06;;;;;;;1.40;1.08;;;;;;;;;;6178484;23;19997;-91
2021/12/09 02:59:32;;;;;;;1.40;1.30;;;;;;;;;;6181191;23;20012;-90
2021/12/09 03:02:00;;;;;;;2.45;1.58;;;;;;;;;;6181816;23;20001;-92
2021/12/09 03:04:37;;;;;;;1.35;1.00;;;;;;;;;;6182885;23;20013;-91
2021/12/09 03:07:08;;;;;;;1.42;1.30;;;;;;;;;;6180803;23;20051;-91
2021/12/09 03:09:34;;;;;;;3.65;1.15;;;;;;;;;;6182479;23;20028;-91
2021/12/09 03:12:04;;;;;;;3.10;1.42;;;;;;;;;;6181473;23;20009;-94
2021/12/09 03:14:30;;;;;;;3.83;1.30;;;;;;;;;;6182387;23;20013;-90
2021/12/09 03:16:57;;;;;;;0.90;0.73;;;;;;;;;;6180108;23;20041;-92
2021/12/09 03:19:23;;;;;;;2.03;1.15;;;;;;;;;;6182609;23;20013;-92
2021/12/09 03:21:49;;;;;;;7.32;1.42;;;;;;;;;;6181231;23;20005;-93
2021/12/09 03:24:16;;;;;;;2.78;2.58;;;;;;;;;;6183148;23;20005;-94
2021/12/09 03:26:56;;;;;;;3.50;2.22;;;;;;;;;;6179173;23;20016;-93
2021/12/09 03:29:23;;;;;;;1.42;1.02;;;;;;;;;;6183985;23;20008;-93
2021/12/09 03:31:51;;;;;;;4.00;2.08;;;;;;;;;;6183462;23;20392;-93
2021/12/09 03:34:18;;;;;;;2.13;1.60;;;;;;;;;;6182880;23;20017;-91
2021/12/09 03:36:46;;;;;;;2.83;1.50;;;;;;;;;;6183003;23;20079;-93
2021/12/09 03:39:15;;;;;;;4.60;1.05;;;;;;;;;;6184284;23;20001;-92
2021/12/09 03:41:42;;;;;;;2.92;1.83;;;;;;;;;;6183631;23;20387;-91
2021/12/09 03:44:08;;;;;;;2.58;1.73;;;;;;;;;;6185343;23;20009;-93
2021/12/09 03:46:35;;;;;;;0.75;0.70;;;;;;;;;;6180431;23;20012;-92
2021/12/09 03:49:01;;;;;;;2.50;1.50;;;;;;;;;;6183741;23;20092;-91
2021/12/09 03:51:27;;;;;;;1.27;1.05;;;;;;;;;;6185582;23;20033;-93
2021/12/09 03:53:53;;;;;;;2.05;1.48;;;;;;;;;;6182235;23;20013;-93
2021/12/09 03:56:19;;;;;;;1.05;0.90;;;;;;;;;;6183577;23;20005;-93
2021/12/09 03:58:46;;;;;;;6.07;1.02;;;;;;;;;;6182607;23;20009;-92
2021/12/09 04:01:12;;;;;;;1.77;1.17;;;;;;;;;;6185149;23;19997;-92
2021/12/09 04:03:38;;;;;;;2.00;1.33;;;;;;;;;;6182934;23;20013;-92
2021/12/09 04:06:04;;;;;;;2.38;1.50;;;;;;;;;;6181795;23;20797;-92
2021/12/09 04:08:30;;;;;;;0.95;0.88;;;;;;;;;;6181168;23;20009;-92
2021/12/09 04:10:56;;;;;;;2.42;1.65;;;;;;;;;;6183610;23;20001;-93
2021/12/09 04:13:23;;;;;;;1.95;0.95;;;;;;;;;;6183099;23;20636;-94
2021/12/09 04:15:49;;;;;;;0.88;0.82;;;;;;;;;;6183083;23;20000;-91
2021/12/09 04:18:15;;;;;;;2.00;1.10;;;;;;;;;;6181191;23;20096;-92
2021/12/09 04:20:41;;;;;;;2.75;1.40;;;;;;;;;;6183234;23;20005;-91
2021/12/09 04:23:07;;;;;;;1.20;1.10;;;;;;;;;;6183991;23;20005;-92
2021/12/09 04:25:34;;;;;;;2.42;1.63;;;;;;;;;;6183103;23;20091;-92
2021/12/09 04:28:00;;;;;;;1.48;1.00;;;;;;;;;;6182113;23;20005;-92
2021/12/09 04:30:27;;;;;;;1.27;0.90;;;;;;;;;;6184329;23;20041;-92
2021/12/09 04:32:54;;;;;;;1.08;0.93;;;;;;;;;;6184897;23;20002;-93
2021/12/09 04:35:20;;;;;;;1.50;1.13;;;;;;;;;;6184298;23;20013;-92
2021/12/09 04:37:47;;;;;;;4.68;1.80;;;;;;;;;;6181741;23;20072;-94
2021/12/09 04:40:15;;;;;;;1.83;0.90;;;;;;;;;;6183158;23;20005;-92
2021/12/09 04:42:44;;;;;;;1.27;1.00;;;;;;;;;;6184813;23;20444;-92
2021/12/09 04:45:14;;;;;;;1.73;1.00;;;;;;;;;;6183906;23;20063;-92
2021/12/09 04:47:40;;;;;;;1.80;1.20;;;;;;;;;;6180234;23;20016;-94
2021/12/09 04:50:07;;;;;;;6.13;2.47;;;;;;;;;;6183777;23;20020;-93
2021/12/09 04:52:33;;;;;;;1.77;1.13;;;;;;;;;;6183848;23;20027;-93
2021/12/09 04:54:59;;;;;;;3.25;1.60;;;;;;;;;;6183489;23;20012;-93
2021/12/09 04:57:25;;;;;;;3.67;1.17;;;;;;;;;;6180379;23;21218;-93
2021/12/09 04:59:52;;;;;;;3.10;1.40;;;;;;;;;;6183522;23;20371;-92
2021/12/09 05:02:30;;;;;;;1.52;1.20;;;;;;;;;;6183472;23;20080;-92
2021/12/09 05:04:56;;;;;;;1.20;1.10;;;;;;;;;;6183262;23;20041;-94
2021/12/09 05:07:22;;;;;;;2.10;1.20;;;;;;;;;;6180165;23;20005;-93
2021/12/09 05:09:52;;;;;;;2.60;1.20;;;;;;;;;;6183161;23;20348;-92
2021/12/09 05:12:19;;;;;;;1.67;1.05;;;;;;;;;;6184685;23;20029;-93
2021/12/09 05:14:46;;;;;;;1.73;1.23;;;;;;;;;;6183400;23;20096;-93
2021/12/09 05:17:16;;;;;;;1.30;1.20;;;;;;;;;;6179709;23;20004;-92
2021/12/09 05:19:42;;;;;;;1.42;1.00;;;;;;;;;;6182648;23;20450;-92
2021/12/09 05:22:08;;;;;;;1.05;0.93;;;;;;;;;;6183287;23;20012;-91
2021/12/09 05:24:36;;;;;;;3.15;1.85;;;;;;;;;;6182628;23;20012;-92
2021/12/09 05:27:02;;;;;;;2.05;1.30;;;;;;;;;;6179510;23;20005;-93
2021/12/09 05:29:36;;;;;;;0.93;0.80;;;;;;;;;;6183325;23;20004;-92
2021/12/09 05:32:08;;;;;;;1.33;1.00;;;;;;;;;;6183233;23;20039;-92
2021/12/09 05:34:53;;;;;;;9.30;1.48;;;;;;;;;;6182641;23;20033;-92
2021/12/09 05:37:20;;;;;;;0.77;0.77;;;;;;;;;;6179601;23;20040;-92
2021/12/09 05:39:47;;;;;;;1.05;0.95;;;;;;;;;;6182140;23;20009;-91
2021/12/09 05:42:14;;;;;;;4.90;1.50;;;;;;;;;;6182332;23;20001;-91
2021/12/09 05:44:41;;;;;;;2.65;1.70;;;;;;;;;;6183569;23;20005;-92
2021/12/09 05:47:07;;;;;;;1.85;1.13;;;;;;;;;;6181187;23;20009;-92
2021/12/09 05:49:35;;;;;;;1.95;1.08;;;;;;;;;;6181830;23;20027;-91
2021/12/09 05:52:01;;;;;;;0.60;0.60;;;;;;;;;;6182503;23;20447;-93
2021/12/09 05:54:27;;;;;;;1.52;1.00;;;;;;;;;;6183866;23;21127;-93
2021/12/09 05:56:53;;;;;;;3.05;1.90;;;;;;;;;;6180192;23;20005;-92
2021/12/09 05:59:19;;;;;;;1.40;1.05;;;;;;;;;;6183291;23;20011;-93
2021/12/09 06:01:45;;;;;;;1.70;1.20;;;;;;;;;;6182627;23;20024;-94
2021/12/09 06:04:12;;;;;;;1.42;1.25;;;;;;;;;;6181889;23;20040;-92
2021/12/09 06:06:38;;;;;;;3.92;1.27;;;;;;;;;;6180187;23;20012;-93
2021/12/09 06:09:05;;;;;;;1.80;1.53;;;;;;;;;;6182706;23;20001;-93
2021/12/09 06:11:32;;;;;;;0.73;0.73;;;;;;;;;;6182187;23;20450;-93
2021/12/09 06:13:58;;;;;;;1.40;1.30;;;;;;;;;;6183461;23;20064;-91
2021/12/09 06:16:24;;;;;;;8.93;1.38;;;;;;;;;;6181348;23;20005;-93
2021/12/09 06:18:51;;;;;;;2.85;1.40;;;;;;;;;;6177732;23;20088;-93
2021/12/09 06:21:19;;;;;;;4.67;1.80;;;;;;;;;;6180412;23;20009;-92
2021/12/09 06:23:45;;;;;;;;;;;;;;;;;;6182291;23;20233;-93
2021/12/09 06:26:11;;;;;;;1.90;1.20;;;;;;;;;;6180255;23;19900;-94
2021/12/09 06:28:38;;;;;;;3.05;2.78;;;;;;;;;;6179136;23;20005;-92
2021/12/09 06:31:05;;;;;;;16.00;1.15;;;;;;;;;;6181849;23;20005;-91
2021/12/09 06:33:31;;;;;;;1.40;0.90;;;;;;;;;;6177559;23;20026;-93
2021/12/09 06:35:57;;;;;;;7.38;1.38;;;;;;;;;;6180861;23;20048;-92
2021/12/09 06:38:23;;;;;;;1.83;1.42;;;;;;;;;;6180607;23;20249;-90
2021/12/09 06:40:50;;;;;;;1.35;1.25;;;;;;;;;;6182096;23;20143;-94
2021/12/09 06:43:16;;;;;;;1.90;1.40;;;;;;;;;;6182260;23;20020;-92
2021/12/09 06:45:43;;;;;;;2.25;1.17;;;;;;;;;;6181960;23;20032;-92
2021/12/09 06:48:14;;;;;;;1.20;1.10;;;;;;;;;;6182691;23;20016;-93
2021/12/09 06:50:41;;;;;;;3.38;1.20;;;;;;;;;;6182194;23;20001;-94
2021/12/09 06:53:08;;;;;;;2.58;1.02;;;;;;;;;;6181493;23;20059;-93
2021/12/09 06:55:37;;;;;;;2.20;1.27;;;;;;;;;;6183031;23;20029;-93
2021/12/09 06:58:03;;;;;;;1.60;1.27;;;;;;;;;;6183646;23;20040;-92
2021/12/09 07:00:30;;;;;;;4.05;1.35;;;;;;;;;;6183683;23;20029;-93
2021/12/09 07:02:57;;;;;;;1.60;1.40;;;;;;;;;;6181972;23;20016;-94
2021/12/09 07:05:23;;;;;;;4.78;1.95;;;;;;;;;;6185280;23;20113;-93
2021/12/09 07:07:53;;;;;;;2.25;0.85;;;;;;;;;;6185713;23;20009;-92
2021/12/09 07:10:24;;;;;;;1.83;1.33;;;;;;;;;;6184897;23;20059;-92
2021/12/09 07:13:05;;;;;;;1.95;1.75;;;;;;;;;;5106344;27;20132;-93
2021/12/09 07:15:32;;;;;;;3.78;1.27;;;;;;;;;;5102336;28;20032;-96
2021/12/09 07:18:02;;;;;;;1.87;1.00;;;;;;;;;;5107254;28;20855;-95
2021/12/09 07:20:53;;;;;;;1.48;0.95;;;;;;;;;;5099116;28;20024;-94
2021/12/09 07:23:19;;;;;;;3.22;1.17;;;;;;;;;;5105657;28;20502;-93
2021/12/09 07:25:48;;;;;;;3.03;1.63;;;;;;;;;;5108452;28;20398;-93
2021/12/09 07:28:17;;;;;;;5.45;1.40;;;;;;;;;;5098419;28;20030;-93
2021/12/09 07:30:48;;;;;;;1.38;0.90;;;;;;;;;;5099525;28;20031;-95
2021/12/09 07:33:24;;;;;;;1.23;1.13;;;;;;;;;;5096867;28;20036;-93
2021/12/09 07:36:22;;;;;;;6.95;2.13;;;;;;;;;;5106092;28;20028;-94
2021/12/09 07:42:06;;;;;;;6.10;1.45;;;;;;;;;;5089035;28;20036;-91
2021/12/09 07:44:35;;;;;;;6.57;1.10;;;;;;;;;;5098208;28;20081;-92
2021/12/09 07:47:04;;;;;;;1.95;0.93;;;;;;;;;;5091856;28;20012;-93
2021/12/09 07:49:47;;;;;;;3.30;1.73;;;;;;;;;;5090690;28;20032;-93
2021/12/09 07:52:16;;;;;;;3.17;1.50;;;;;;;;;;5099753;28;20040;-93
2021/12/09 07:54:42;;;;;;;1.67;1.10;;;;;;;;;;5105291;28;20020;-92
2021/12/09 07:57:26;;;;;;;3.50;0.90;;;;;;;;;;5103272;28;20500;-92
2021/12/09 08:00:23;;;;;;;9.18;2.00;;;;;;;;;;5101549;28;20487;-93
2021/12/09 08:03:27;;;;;;;3.03;2.03;;;;;;;;;;5100671;28;20123;-94
2021/12/09 08:06:26;;;;;;;6.75;2.17;;;;;;;;;;5089098;28;20485;-95
2021/12/09 08:09:04;;;;;;;1.48;0.85;;;;;;;;;;5110986;27;20366;-93
2021/12/09 08:11:47;;;;;;;1.92;0.82;;;;;;;;;;5106015;28;20040;-94
2021/12/09 08:14:24;;;;;;;12.40;1.90;;;;;;;;;;5089570;28;20028;-93
2021/12/09 08:17:09;;;;;;;7.20;2.28;;;;;;;;;;5110719;28;20096;-92
2021/12/09 08:19:38;;;;;;;5.93;1.70;;;;;;;;;;5100893;28;20116;-93
2021/12/09 08:22:04;;;;;;;1.35;1.13;;;;;;;;;;5096718;28;20028;-91
2021/12/09 08:24:36;;;;;;;1.52;1.42;;;;;;;;;;5088178;28;20028;-94
2021/12/09 08:27:20;;;;;;;8.48;0.93;;;;;;;;;;5074734;28;20059;-93
2021/12/09 08:33:03;;;;;;;1.55;1.42;;;;;;;;;;5028289;28;20128;-91
2021/12/09 08:36:01;;;;;;;2.92;1.90;;;;;;;;;;5032330;28;20048;-94
2021/12/09 08:41:24;;;;;;;4.20;1.45;;;;;;;;;;5032749;28;20037;-91
2021/12/09 08:43:50;;;;;;;1.23;1.00;;;;;;;;;;5031250;28;20088;-93
2021/12/09 08:46:17;;;;;;;7.93;2.42;;;;;;;;;;5031841;28;20045;-91
2021/12/09 08:48:43;;;;;;;3.55;2.08;;;;;;;;;;5028555;28;20062;-90
2021/12/09 08:51:09;;;;;;;3.70;1.73;;;;;;;;;;5032133;28;20103;-90
2021/12/09 08:53:35;;;;;;;5.90;1.83;;;;;;;;;;5031475;28;20034;-89
2021/12/09 08:56:02;;;;;;;3.17;1.48;;;;;;;;;;5031774;28;20026;-91
2021/12/09 08:58:48;;;;;;;3.63;1.60;;;;;;;;;;5019485;28;20029;-92
2021/12/09 09:01:17;;;;;;;1.27;1.17;;;;;;;;;;5031871;28;20262;-93
2021/12/09 09:03:52;;;;;;;6.20;1.15;;;;;;;;;;5032493;28;20037;-93
2021/12/09 09:06:25;;;;;;;2.70;1.30;;;;;;;;;;5031951;28;20040;-93
2021/12/09 09:08:56;;;;;;;2.25;1.50;;;;;;;;;;5041904;28;20492;-92
2021/12/09 09:11:22;;;;;;;7.03;2.55;;;;;;;;;;5074057;28;20421;-90
2021/12/09 09:13:48;;;;;;;8.05;2.10;;;;;;;;;;5089658;28;20020;-90
2021/12/09 09:16:14;;;;;;;5.03;2.20;;;;;;;;;;5073158;28;20028;-90
2021/12/09 09:18:40;;;;;;;5.43;1.05;;;;;;;;;;5096481;28;20435;-92
2021/12/09 09:21:10;;;;;;;9.00;2.88;;;;;;;;;;5081012;28;20050;-92
2021/12/09 09:23:36;;;;;;;13.32;3.85;;;;;;;;;;5082498;28;20035;-90
2021/12/09 09:26:03;;;;;;;24.70;7.22;;;;;;;;;;5085502;28;20063;-93
2021/12/09 09:28:29;;;;;;;11.48;5.78;;;;;;;;;;5073836;28;20547;-91
2021/12/09 09:30:59;;;;;;;11.90;4.28;;;;;;;;;;5091826;28;20086;-92
2021/12/09 09:33:27;;;;;;;5.30;2.67;;;;;;;;;;5090457;28;20043;-93
2021/12/09 09:35:53;;;;;;;3.20;1.20;;;;;;;;;;5090862;28;20058;-92
2021/12/09 09:38:20;;;;;;;3.10;1.88;;;;;;;;;;5077472;28;20086;-92
2021/12/09 09:40:49;;;;;;;1.43;0.80;;;;;;;;;;5102222;28;20020;-93
2021/12/09 09:43:30;;;;;;;6.80;1.38;;;;;;;;;;5091709;28;20077;-91
2021/12/09 09:45:59;;;;;;;5.70;2.33;;;;;;;;;;5073843;28;20039;-93
2021/12/09 09:48:25;;;;;;;11.32;1.55;;;;;;;;;;5073751;28;20033;-92
2021/12/09 09:50:51;;;;;;;1.90;1.50;;;;;;;;;;5085897;28;20496;-93
2021/12/09 09:53:18;;;;;;;1.90;1.27;;;;;;;;;;5079360;28;20480;-93
2021/12/09 09:55:47;;;;;;;2.73;1.57;;;;;;;;;;5088670;28;20683;-93
2021/12/09 09:58:14;;;;;;;5.78;1.20;;;;;;;;;;5088416;28;20032;-94
2021/12/09 10:00:40;;;;;;;3.20;1.40;;;;;;;;;;5087286;28;20021;-93
2021/12/09 10:03:16;;;;;;;3.40;0.90;;;;;;;;;;5082603;28;20028;-92
2021/12/09 10:05:44;;;;;;;1.05;1.00;;;;;;;;;;5084936;28;20043;-93
2021/12/09 10:08:14;;;;;;;1.38;1.10;;;;;;;;;;5071892;28;20107;-94
2021/12/09 10:10:43;;;;;;;3.45;2.25;;;;;;;;;;5100930;28;20039;-92
2021/12/09 10:13:10;;;;;;;5.43;1.52;;;;;;;;;;5091711;28;20044;-92
2021/12/09 10:15:39;;;;;;;11.02;4.60;;;;;;;;;;5087524;28;20622;-93
2021/12/09 10:18:08;;;;;;;2.17;1.38;;;;;;;;;;5074101;28;20040;-93
2021/12/09 10:20:56;;;;;;;8.18;2.47;;;;;;;;;;5081192;28;20032;-94
2021/12/09 10:23:38;;;;;;;1.85;1.63;;;;;;;;;;5079985;28;20119;-94
2021/12/09 10:26:13;;;;;;;1.45;1.02;;;;;;;;;;5080316;28;20713;-93
2021/12/09 10:28:50;;;;;;;2.20;1.67;;;;;;;;;;5076499;28;20063;-92
2021/12/09 10:31:43;;;;;;;1.65;1.55;;;;;;;;;;5072588;28;20021;-95
2021/12/09 10:37:05;;;;;;;1.55;1.45;;;;;;;;;;5020193;28;20044;-93
2021/12/09 10:40:12;;;;;;;1.98;1.42;;;;;;;;;;5013001;28;20088;-94
2021/12/09 10:42:40;;;;;;;2.35;1.05;;;;;;;;;;4990514;28;20105;-94
2021/12/09 10:45:28;;;;;;;;;;;;;;;;;;;;;
2021/12/09 10:48:10;;;;;;;3.10;1.48;;;;;;;;;;4978749;28;20038;-93
2021/12/09 10:50:46;;;;;;;5.75;0.90;;;;;;;;;;4990083;28;20022;-93
2021/12/09 10:56:16;;;;;;;1.10;1.00;;;;;;;;;;4990436;28;20063;-92
2021/12/09 10:58:46;;;;;;;3.33;0.98;;;;;;;;;;4963485;28;20034;-93
2021/12/09 11:01:25;;;;;;;7.53;2.55;;;;;;;;;;4990853;28;20129;-93
2021/12/09 11:04:15;;;;;;;0.70;0.70;;;;;;;;;;4990543;28;20161;-94
2021/12/09 11:06:44;;;;;;;3.75;0.90;;;;;;;;;;4980338;28;20058;-92
2021/12/09 11:09:12;;;;;;;1.08;0.70;;;;;;;;;;4991515;28;20026;-93
2021/12/09 11:11:43;;;;;;;0.75;0.75;;;;;;;;;;5037151;28;20101;-93
2021/12/09 11:14:14;;;;;;;4.65;1.30;;;;;;;;;;5067840;28;20125;-93
2021/12/09 11:16:42;;;;;;;0.75;0.70;;;;;;;;;;5073630;28;20119;-93
2021/12/09 11:19:16;;;;;;;1.30;0.70;;;;;;;;;;5080206;28;20043;-92
2021/12/09 11:21:45;;;;;;;4.05;0.90;;;;;;;;;;5088576;28;20040;-94
2021/12/09 11:24:14;;;;;;;4.78;0.85;;;;;;;;;;5090316;28;20038;-93
2021/12/09 11:29:18;;;;;;;1.42;1.02;;;;;;;;;;5076089;28;20039;-94
2021/12/09 11:31:50;;;;;;;4.25;1.25;;;;;;;;;;5071651;28;20028;-92
2021/12/09 11:34:19;;;;;;;2.25;0.70;;;;;;;;;;5082722;28;20124;-91
2021/12/09 11:36:47;;;;;;;1.20;0.77;;;;;;;;;;5071109;28;20033;-93
2021/12/09 11:39:19;;;;;;;;;;;8.00;68.40;;;;;;5071416;28;20078;-91
2021/12/09 11:48:08;;;;;;;0.63;0.63;;;;;;;;;;5031822;28;20029;-95
2021/12/09 11:51:26;;;;;;;1.15;0.70;;;;;;;;;;5067661;28;20048;-95
2021/12/09 11:57:27;;;;;;;;;;;;;;;;;;;;;
2021/12/09 12:37:06;;;;;;;1.27;0.80;;;;;;;;;;5030718;28;20033;-93
2021/12/09 12:42:19;;;;;;;3.13;1.13;;;;;;;;;;5029417;28;20033;-94
2021/12/09 12:45:03;;;;;;;2.63;1.00;;;;;;;;;;5024903;28;20025;-92
2021/12/09 12:47:38;;;;;;;1.10;0.75;;;;;;;;;;5023838;28;20711;-92
2021/12/09 12:50:09;;;;;;;8.30;1.10;;;;;;;;;;5018460;28;20037;-91
2021/12/09 12:52:35;;;;;;;0.73;0.60;;;;;;;;;;5017061;28;20042;-93
2021/12/09 12:55:13;;;;;;;2.10;0.65;;;;;;;;;;5050902;28;20028;-93
2021/12/09 12:57:44;;;;;;;3.97;0.95;;;;;;;;;;5090394;28;20047;-93
2021/12/09 13:00:27;;;;;;;4.15;1.08;;;;;;;;;;5093904;28;20021;-94
2021/12/09 13:11:24;;;;;;;1.70;0.70;;;;;;;;;;5073743;28;20044;-93
2021/12/09 13:14:25;;;;;;;0.90;0.73;;;;;;;;;;5089783;28;20132;-94
2021/12/09 13:17:28;;;;;;;0.98;0.68;;;;;;;;;;5088523;28;20048;-94
2021/12/09 13:20:07;;;;;;;0.35;0.35;;;;;;;;;;5085954;28;20055;-93
2021/12/09 13:25:34;;;;;;;1.33;0.50;;;;;;;;;;5093584;28;20089;-94
2021/12/09 13:28:17;;;;;;;0.68;0.60;;;;;;;;;;5087558;28;20029;-93
2021/12/09 13:36:53;;;;;;;5.10;2.20;;;;;;;;;;5089625;28;20106;-94
2021/12/09 13:39:30;;;;;;;21.90;4.90;;;;;;;;;;5084371;28;20056;-93
2021/12/09 13:47:51;;;;;;;86.20;18.45;;;;;;;;;;5088790;28;20047;-92
2021/12/09 13:55:31;;;;;;;7.22;4.10;;;;;;;;;;5087865;28;20412;-92
2021/12/09 13:58:05;;;;;;;28.55;9.35;;;;;;;;;;5086745;28;20031;-90
2021/12/09 14:00:47;;;;;;;7.95;3.60;;;;;;;;;;5105017;28;20035;-96
2021/12/09 14:03:23;;;;;;;38.42;11.00;;;;;;;;;;5093408;28;20036;-92
2021/12/09 14:06:09;;;;;;;22.30;8.53;;;;;;;;;;5081747;28;20020;-92
2021/12/09 14:08:45;;;;;;;18.67;8.23;;;;;;;;;;5095881;28;20070;-93
2021/12/09 14:11:18;;;;;;;13.90;5.07;;;;;;;;;;5088908;28;20047;-94
2021/12/09 14:13:49;;;;;;;15.75;6.35;;;;;;;;;;5094044;28;20056;-93
2021/12/09 14:21:49;;;;;;;6.55;2.63;;;;;;;;;;5094341;28;20040;-92
2021/12/09 14:24:40;;;;;;;4.95;2.05;;;;;;;;;;5078912;28;20042;-94
2021/12/09 14:27:15;;;;;;;3.75;1.83;;;;;;;;;;5075699;28;20036;-92
2021/12/09 14:29:46;;;;;;;1.35;0.80;;;;;;;;;;5086923;28;20550;-92
2021/12/09 14:32:25;;;;;;;11.20;3.00;;;;;;;;;;5074732;28;20409;-93
2021/12/09 14:34:55;;;;;;;4.55;1.88;;;;;;;;;;5087049;28;20404;-91
2021/12/09 14:37:33;;;;;;;2.75;1.45;;;;;;;;;;5083684;28;20024;-94
2021/12/09 14:40:14;;;;;;;0.88;0.70;;;;;;;;;;5073661;28;20029;-92
2021/12/09 14:43:01;;;;;;;;;;;;;;;;;;;;;
2021/12/09 14:45:38;;;;;;;1.40;1.20;;;;;;;;;;5078290;28;20024;-93
2021/12/09 14:48:30;;;;;;;0.73;0.73;;;;;;;;;;5076100;28;20426;-95
2021/12/09 14:54:29;;;;;;;0.95;0.73;;;;;;;;;;5032398;28;20033;-95
2021/12/09 14:57:06;;;;;;;0.77;0.77;;;;;;;;;;4953123;28;20049;-94
2021/12/09 15:03:01;;;;;;;1.65;1.05;;;;;;;;;;4950524;28;20047;-94
2021/12/09 15:05:57;;;;;;;0.80;0.80;;;;;;;;;;4910291;29;20132;-94
2021/12/09 15:09:00;;;;;;;0.75;0.65;;;;;;;;;;4905562;29;20127;-92
2021/12/09 15:17:56;;;;;;;0.65;0.65;;;;;;;;;;4828462;29;20489;-93
2021/12/09 15:20:53;;;;;;;0.73;0.68;;;;;;;;;;4803286;29;20042;-93
2021/12/09 15:26:56;;;;;;;;;;;;;;;;;;;;;
2021/12/09 15:35:36;;;;;;;3.00;1.05;;;;;;;;;;4795002;29;20050;-94
2021/12/09 15:39:04;;;;;;;2.10;0.75;;;;;;;;;;4825478;29;20046;-94
2021/12/09 15:50:35;;;;;;;4.35;0.90;;;;;;;;;;4948512;29;20036;-94
2021/12/09 15:53:01;;;;;;;1.85;0.70;;;;;;;;;;4951638;28;20571;-90
2021/12/09 15:55:48;;;;;;;1.00;0.90;;;;;;;;;;4965636;28;20906;-93
2021/12/09 15:58:17;;;;;;;0.65;0.60;;;;;;;;;;4995954;28;20045;-96
2021/12/09 16:00:56;;;;;;;4.07;1.40;;;;;;;;;;5000178;28;20027;-96
2021/12/09 16:03:42;;;;;;;2.13;1.45;;;;;;;;;;5064008;28;20119;-94
2021/12/09 16:06:43;;;;;;;3.30;2.23;;;;;;;;;;5034436;28;20044;-95
2021/12/09 17:17:15;;;;;;;16.35;1.60;;;5.90;70.70;;;;;;2875169;23;20318;-93
2021/12/09 17:19:51;;;;;;;2.08;1.52;;;;;;;;;;4962399;28;20050;-93
2021/12/09 17:22:24;;;;;;;3.58;1.23;;;;;;;;;;4975562;28;20038;-95
2021/12/09 17:24:56;;;;;;;1.05;0.90;;;;;;;;;;4971563;28;20023;-94
2021/12/09 17:27:37;;;;;;;4.72;1.60;;;;;;;;;;4973964;28;20053;-95
2021/12/09 17:30:08;;;;;;;4.47;1.50;;;;;;;;;;4962548;28;20035;-95
2021/12/09 17:32:38;;;;;;;2.05;1.33;;;;;;;;;;4974268;28;20073;-94
2021/12/09 17:35:05;;;;;;;0.75;0.75;;;;;;;;;;4959616;28;20030;-96
2021/12/09 17:37:31;;;;;;;6.67;1.93;;;;;;;;;;4974162;28;20034;-95
2021/12/09 17:39:57;;;;;;;1.73;1.30;;;;;;;;;;4973733;28;20274;-94
2021/12/09 17:42:23;;;;;;;2.95;1.05;;;;;;;;;;4974381;28;20106;-95
2021/12/09 17:44:52;;;;;;;9.57;2.65;;;;;;;;;;4963582;28;20026;-94
2021/12/09 17:47:25;;;;;;;12.07;4.20;;;;;;;;;;4973112;28;20034;-94
2021/12/09 17:49:58;;;;;;;10.05;4.30;;;;;;;;;;4975034;28;20050;-94
2021/12/09 17:54:50;;;;;;;20.23;4.90;;;;;;;;;;4975336;28;20034;-95
2021/12/09 17:57:16;;;;;;;7.80;2.85;;;;;;;;;;4984588;28;20041;-95
2021/12/09 17:59:52;;;;;;;4.90;3.22;;;;;;;;;;4974566;28;20026;-95
2021/12/09 18:02:18;;;;;;;7.32;2.20;;;;;;;;;;4969933;28;20026;-96
2021/12/09 18:04:46;;;;;;;2.53;1.63;;;;;;;;;;4979015;28;20117;-94
2021/12/09 18:07:15;;;;;;;3.10;1.20;;;;;;;;;;4965031;28;20542;-96
2021/12/09 18:09:44;;;;;;;1.00;0.90;;;;;;;;;;4965338;28;20427;-95
2021/12/09 18:12:12;;;;;;;3.20;1.20;;;;;;;;;;4965256;28;20039;-95
2021/12/09 18:14:44;;;;;;;2.40;1.55;;;;;;;;;;4973078;28;20049;-95
2021/12/09 18:17:18;;;;;;;2.08;1.45;;;;;;;;;;4972371;28;20050;-96
2021/12/09 18:19:46;;;;;;;5.82;2.45;;;;;;;;;;4967828;28;20498;-95
2021/12/09 18:22:12;;;;;;;8.15;3.33;;;;;;;;;;4969387;28;20049;-95
2021/12/09 18:24:39;;;;;;;6.28;3.58;;;;;;;;;;4966058;28;20027;-95
2021/12/09 18:27:06;;;;;;;4.18;3.20;;;;;;;;;;4974725;28;20039;-96
2021/12/09 18:29:32;;;;;;;8.10;3.97;;;;;;;;;;4980792;28;20023;-94
2021/12/09 18:32:01;;;;;;;7.13;2.85;;;;;;;;;;4957147;28;20066;-94